Latest Weather Observations for Hindmarsh Island

IDS60801

Issued at 8:01 pm CDT Sunday 24 January 2021 (issued every 10 minutes, with the page automatically refreshed every 10 minutes)

About weather observations | Map of weather stations | Latest weather observations for SA | Other Formats
Station Details ID: 023894 Name: HINDMARSH ISLAND AWS Lat: -35.52 Lon: 138.82 Height: 11.0 m
Data from the previous 72 hours. | See also: Recent months at Hindmarsh Island
Date/Time
CDT
Temp
°C
App
Temp
°C
Dew
Point
°C
Rel
Hum
%
Delta-T
°C
Wind Press
QNH
hPa
Press
MSL
hPa
Rain since
9am
mm
Dir  Spd
km/h
Gust
km/h
Spd
kts
Gust
kts
24/08:00pm 24.8 21.1 14.0 51 6.4 SW 26 35 14 19 1001.9 1001.8 0.0
24/07:30pm 25.2 21.3 14.3 50 6.5 SW 28 35 15 19 1001.6 1001.5 0.0
24/07:00pm 25.2 21.1 14.9 52 6.2 SW 30 41 16 22 1001.3 1001.2 0.0
24/06:30pm 24.1 20.5 15.3 58 5.3 SW 28 35 15 19 1001.3 1001.2 0.0
24/06:00pm 25.0 20.5 14.8 53 6.1 SW 32 41 17 22 1001.2 1001.1 0.0
24/05:30pm 27.0 21.7 15.4 49 7.1 SW 37 52 20 28 1000.9 1000.8 0.0
24/05:21pm 28.6 22.7 12.5 37 9.4 SW 35 48 19 26 1000.8 1000.7 0.0
24/05:12pm 33.6 28.8 9.0 22 13.9 W 24 48 13 26 1000.7 1000.6 0.0
24/05:00pm 40.2 33.0 2.8 10 19.9 WNW 30 41 16 22 1000.6 1000.5 0.0
24/04:30pm 41.4 33.8 0.5 8 21.3 NW 30 41 16 22 1000.6 1000.5 0.0
24/04:00pm 42.1 34.0 1.1 8 21.5 WNW 33 46 18 25 1000.8 1000.7 0.0
24/03:30pm 40.9 32.5 1.8 9 20.7 NW 35 50 19 27 1001.1 1001.0 0.0
24/03:00pm 41.6 33.1 0.7 8 21.3 NW 35 56 19 30 1001.3 1001.2 0.0
24/02:52pm 42.3 34.2 1.2 8 21.6 NW 33 52 18 28 1001.5 1001.4 0.0
24/02:30pm 41.7 33.2 0.8 8 21.4 NW 35 50 19 27 1001.8 1001.7 0.0
24/02:04pm 42.2 33.7 1.1 8 21.5 NW 35 54 19 29 1002.1 1002.0 0.0
24/02:00pm 42.0 33.1 1.0 8 21.4 NW 37 50 20 27 1002.2 1002.1 0.0
24/01:30pm 41.9 33.0 0.9 8 21.5 NW 37 52 20 28 1002.5 1002.4 0.0
24/01:09pm 43.1 35.7 1.8 8 22.0 NW 30 48 16 26 1002.8 1002.7 0.0
24/01:00pm 42.6 34.8 1.4 8 21.7 NW 32 43 17 23 1002.9 1002.8 0.0
24/12:30pm 41.3 36.0 2.1 9 20.8 N 19 28 10 15 1003.3 1003.2 0.0
24/12:00pm 41.5 36.1 2.3 9 20.9 N 20 32 11 17 1003.9 1003.8 0.0
24/11:30am 39.6 34.6 3.7 11 19.4 NNE 19 28 10 15 1004.2 1004.1 0.0
24/11:00am 36.4 30.8 3.6 13 17.3 NE 22 30 12 16 1004.4 1004.3 0.0
24/10:30am 34.4 28.5 4.0 15 16.0 NE 24 32 13 17 1004.8 1004.7 0.0
24/10:00am 32.9 27.1 4.6 17 14.9 NE 24 32 13 17 1005.1 1005.0 0.0
24/09:30am 31.9 26.7 5.4 19 14.1 NE 22 32 12 17 1005.3 1005.2 0.0
24/09:00am 30.5 24.4 5.0 20 13.3 NE 26 32 14 17 1005.6 1005.5 0.0
24/08:30am 29.1 24.6 7.1 25 11.8 NNE 20 26 11 14 1005.7 1005.6 0.0
24/08:00am 28.3 23.5 7.5 27 11.2 NNE 22 30 12 16 1005.7 1005.6 0.0
24/07:30am 26.5 22.1 7.5 30 10.1 NNE 20 28 11 15 1005.6 1005.5 0.0
24/07:00am 25.8 20.6 7.4 31 9.7 NNE 24 35 13 19 1005.3 1005.2 0.0
24/06:30am 25.4 20.4 8.0 33 9.3 NNE 24 30 13 16 1005.4 1005.3 0.0
24/06:00am 25.1 20.6 8.6 35 8.9 NNE 22 30 12 16 1005.3 1005.2 0.0
24/05:30am 24.7 20.9 9.8 39 8.2 NNE 20 26 11 14 1005.3 1005.2 0.0
24/05:00am 24.8 20.4 9.1 37 8.5 NNE 22 26 12 14 1005.4 1005.3 0.0
24/04:30am 23.5 19.6 8.8 39 7.9 N 19 24 10 13 1005.5 1005.4 0.0
24/04:00am 23.3 19.1 9.7 42 7.4 NNE 22 26 12 14 1005.6 1005.5 0.0
24/03:30am 22.4 18.7 9.6 44 6.9 NNE 19 22 10 12 1005.8 1005.7 0.0
24/03:00am 22.2 18.6 10.0 46 6.6 N 19 20 10 11 1006.1 1006.0 0.0
24/02:30am 21.3 19.3 11.6 54 5.4 N 13 15 7 8 1006.6 1006.5 0.0
24/02:00am 21.4 20.6 12.8 58 4.9 N 9 11 5 6 1006.9 1006.8 0.0
24/01:30am 21.7 20.2 10.5 49 6.1 N 9 9 5 5 1007.1 1007.0 0.0
24/01:00am 22.5 21.4 10.0 45 6.8 N 6 7 3 4 1007.4 1007.3 0.0
24/12:30am 22.7 21.2 10.5 46 6.7 NNW 9 11 5 6 1007.7 1007.6 0.0
24/12:00am 22.1 21.0 12.1 53 5.6 N 9 11 5 6 1007.8 1007.7 0.0
 
Date/Time
CDT
Temp
°C
App
Temp
°C
Dew
Point
°C
Rel
Hum
%
Delta-T
°C
Wind Press
QNH
hPa
Press
MSL
hPa
Rain since
9am
mm
Dir  Spd
km/h
Gust
km/h
Spd
kts
Gust
kts
23/11:30pm 22.2 21.3 12.5 54 5.5 NNW 9 11 5 6 1008.0 1007.9 0.0
23/11:00pm 20.9 20.0 13.6 63 4.2 NNW 11 13 6 7 1008.2 1008.1 0.0
23/10:30pm 21.8 22.7 15.2 66 3.9 SW 4 6 2 3 1008.8 1008.7 0.0
23/10:00pm 21.5 21.2 14.4 64 4.2 SW 9 11 5 6 1008.8 1008.7 0.0
23/09:30pm 21.4 21.1 14.3 64 4.2 SW 9 11 5 6 1008.9 1008.8 0.0
23/09:00pm 21.5 21.1 15.1 67 3.8 SW 11 13 6 7 1008.5 1008.4 0.0
23/08:30pm 21.8 22.1 14.9 65 4.1 SW 7 9 4 5 1008.3 1008.2 0.0
23/08:00pm 22.7 22.4 14.5 60 4.8 SSW 9 11 5 6 1008.2 1008.1 0.0
23/07:30pm 23.8 22.5 14.8 57 5.4 SW 15 17 8 9 1008.5 1008.4 0.0
23/07:00pm 24.1 23.2 14.8 56 5.5 SSW 13 17 7 9 1008.4 1008.3 0.0
23/06:30pm 24.4 23.0 15.6 58 5.3 SSW 17 20 9 11 1008.1 1008.0 0.0
23/06:00pm 24.6 23.0 15.0 55 5.8 SSW 17 22 9 12 1008.2 1008.1 0.0
23/05:30pm 24.8 23.3 15.4 56 5.7 S 17 22 9 12 1008.0 1007.9 0.0
23/05:00pm 24.8 23.3 15.4 56 5.7 S 17 20 9 11 1007.9 1007.8 0.0
23/04:30pm 25.0 23.8 17.0 61 5.0 S 19 24 10 13 1008.0 1007.9 0.0
23/04:00pm 26.7 23.8 16.0 52 6.6 SSE 26 30 14 16 1007.8 1007.7 0.0
23/03:30pm 28.7 26.0 15.6 45 8.1 SE 24 28 13 15 1008.0 1007.9 0.0
23/03:00pm 27.9 24.2 14.9 45 7.9 SSE 28 32 15 17 1008.3 1008.2 0.0
23/02:30pm 29.0 25.5 15.5 44 8.3 SSE 28 32 15 17 1008.5 1008.4 0.0
23/02:00pm 29.6 26.3 15.0 41 8.9 SSE 26 32 14 17 1008.6 1008.5 0.0
23/01:57pm 29.7 26.3 14.7 40 9.1 SSE 26 30 14 16 1008.6 1008.5 0.0
23/01:30pm 34.7 31.0 4.3 15 16.1 ESE 13 20 7 11 1009.0 1008.9 0.0
23/01:00pm 34.1 30.4 6.4 18 15.1 NE 15 24 8 13 1009.3 1009.2 0.0
23/12:30pm 32.5 28.3 5.9 19 14.3 NE 17 24 9 13 1009.7 1009.6 0.0
23/12:00pm 30.5 26.3 8.3 25 12.3 NE 20 30 11 16 1009.9 1009.8 0.0
23/11:30am 29.0 25.0 9.2 29 11.0 NE 20 28 11 15 1010.5 1010.4 0.0
23/11:00am 26.7 23.9 11.2 38 8.8 NE 17 24 9 13 1010.8 1010.7 0.0
23/10:30am 25.2 22.8 12.8 46 7.2 ENE 17 24 9 13 1010.8 1010.7 0.0
23/10:00am 23.8 21.3 12.4 48 6.5 NE 17 24 9 13 1011.3 1011.2 0.0
23/09:30am 23.4 20.4 12.7 51 6.1 NE 20 28 11 15 1011.2 1011.1 0.0
23/09:00am 21.1 19.1 14.0 64 4.1 NE 17 22 9 12 1011.4 1011.3 0.0
23/08:30am 19.3 17.6 14.8 75 2.6 NE 17 20 9 11 1011.1 1011.0 0.0
23/08:00am 17.5 17.3 14.6 83 1.7 NNE 9 13 5 7 1011.2 1011.1 0.0
23/07:30am 16.4 15.6 14.1 86 1.3 N 11 13 6 7 1011.1 1011.0 0.0
23/07:00am 15.7 14.9 13.9 89 1.0 N 11 15 6 8 1010.8 1010.7 0.0
23/06:30am 14.8 14.3 12.8 88 1.1 N 7 9 4 5 1010.8 1010.7 0.0
23/06:00am 15.2 14.9 13.2 88 1.1 NNW 7 11 4 6 1010.7 1010.6 0.0
23/05:30am 15.4 14.4 13.4 88 1.1 N 11 13 6 7 1010.5 1010.4 0.0
23/05:00am 15.9 15.2 14.4 91 0.9 N 11 13 6 7 1010.5 1010.4 0.0
23/04:30am 16.1 16.1 14.1 88 1.1 N 7 9 4 5 1010.5 1010.4 0.0
23/04:00am 16.2 16.1 13.9 86 1.3 N 7 9 4 5 1010.7 1010.6 0.0
23/03:30am 16.2 16.0 13.5 84 1.5 NE 7 9 4 5 1010.9 1010.8 0.0
23/03:00am 16.3 16.0 13.4 83 1.6 NE 7 9 4 5 1011.0 1010.9 0.0
23/02:30am 16.6 16.5 13.3 81 1.9 E 6 7 3 4 1011.4 1011.3 0.0
23/02:00am 17.4 16.9 13.9 80 2.0 SSE 9 13 5 7 1011.5 1011.4 0.0
23/01:30am 17.5 16.8 14.2 81 1.9 SSE 11 15 6 8 1011.7 1011.6 0.0
23/01:00am 17.7 16.6 14.2 80 2.0 SSE 13 15 7 8 1012.0 1011.9 0.0
23/12:30am 17.6 16.5 14.3 81 1.9 SE 13 17 7 9 1012.0 1011.9 0.0
23/12:00am 17.8 17.2 14.7 82 1.8 SSE 11 13 6 7 1012.1 1012.0 0.0
 
Date/Time
CDT
Temp
°C
App
Temp
°C
Dew
Point
°C
Rel
Hum
%
Delta-T
°C
Wind Press
QNH
hPa
Press
MSL
hPa
Rain since
9am
mm
Dir  Spd
km/h
Gust
km/h
Spd
kts
Gust
kts
22/11:30pm 17.8 17.2 14.5 81 1.9 SSE 11 13 6 7 1012.3 1012.2 0.0
22/11:00pm 17.9 17.2 14.4 80 2.0 SSE 11 13 6 7 1012.3 1012.2 0.0
22/10:30pm 18.1 17.4 14.4 79 2.1 SSE 11 13 6 7 1012.4 1012.3 0.0
22/10:00pm 18.1 17.0 14.2 78 2.2 SSE 13 15 7 8 1012.4 1012.3 0.0
22/09:30pm 18.4 16.5 14.1 76 2.5 SSE 17 19 9 10 1012.3 1012.2 0.0
22/09:00pm 18.5 16.4 13.6 73 2.8 S 17 19 9 10 1012.3 1012.2 0.0
22/08:30pm 18.8 16.3 13.4 71 3.1 S 19 20 10 11 1012.3 1012.2 0.0
22/08:00pm 19.3 16.9 13.7 70 3.2 S 19 20 10 11 1012.0 1011.9 0.0
22/07:30pm 19.8 17.7 13.5 67 3.6 S 17 20 9 11 1011.7 1011.6 0.0
22/07:00pm 20.3 18.5 13.3 64 4.0 S 15 19 8 10 1011.3 1011.2 0.0
22/06:30pm 20.3 18.6 12.3 60 4.5 S 13 17 7 9 1011.4 1011.3 0.0
22/06:00pm 20.7 18.9 13.2 62 4.3 SSW 15 19 8 10 1011.4 1011.3 0.0
22/05:30pm 21.0 18.4 11.9 56 5.1 S 17 22 9 12 1011.4 1011.3 0.0
22/05:00pm 21.5 18.0 10.9 51 5.8 SSW 20 26 11 14 1011.8 1011.7 0.0
22/04:30pm 21.5 18.0 12.1 55 5.3 S 22 28 12 15 1011.9 1011.8 0.0
22/04:00pm 21.2 17.1 11.5 54 5.4 S 24 30 13 16 1012.1 1012.0 0.0
22/03:30pm 22.2 18.6 13.0 56 5.3 S 24 30 13 16 1012.1 1012.0 0.0
22/03:00pm 21.5 18.3 13.2 59 4.8 S 22 28 12 15 1012.2 1012.1 0.0
22/02:30pm 22.0 19.1 15.1 65 4.1 S 24 28 13 15 1012.1 1012.0 0.0
22/02:00pm 21.1 17.9 14.3 65 4.0 S 24 28 13 15 1012.3 1012.2 0.0
22/01:30pm 21.5 18.3 15.3 68 3.7 S 26 32 14 17 1012.6 1012.5 0.0
22/01:00pm 21.8 18.5 14.9 65 4.1 S 26 32 14 17 1012.7 1012.6 0.0
22/12:30pm 21.7 19.3 15.3 67 3.8 S 22 28 12 15 1012.4 1012.3 0.0
22/12:00pm 21.5 19.3 14.4 64 4.2 S 19 24 10 13 1012.5 1012.4 0.0
22/11:30am 21.9 20.0 15.3 66 3.9 S 19 24 10 13 1012.6 1012.5 0.0
22/11:00am 20.8 18.8 14.9 69 3.5 SSW 19 22 10 12 1012.8 1012.7 0.0
22/10:30am 21.1 19.5 15.0 68 3.6 S 17 22 9 12 1012.5 1012.4 0.0
22/10:00am 20.8 18.7 14.7 68 3.6 SSW 19 24 10 13 1012.5 1012.4 0.0
22/09:30am 20.4 18.2 14.5 69 3.4 SSW 19 24 10 13 1012.4 1012.3 0.0
22/09:00am 20.2 18.9 14.8 71 3.2 SSW 15 20 8 11 1012.1 1012.0 0.0
22/08:30am 19.3 18.2 13.0 67 3.6 SW 11 15 6 8 1011.8 1011.7 0.0
22/08:00am 17.9 17.5 12.4 70 3.1 WSW 6 9 3 5 1011.7 1011.6 0.0
22/07:30am 15.8 14.6 11.6 76 2.3 W 9 11 5 6 1011.8 1011.7 0.0
22/07:00am 14.2 13.0 10.4 78 2.0 WNW 7 9 4 5 1011.2 1011.1 0.0
22/06:30am 13.3 11.5 9.5 78 1.9 NW 9 11 5 6 1011.0 1010.9 0.0
22/06:00am 14.4 14.3 9.6 73 2.5 CALM 0 0 0 0 1010.7 1010.6 0.0
22/05:30am 15.1 14.9 9.0 67 3.1 CALM 0 0 0 0 1010.4 1010.3 0.0
22/05:00am 14.2 12.4 9.6 74 2.4 NW 9 11 5 6 1010.5 1010.4 0.0
22/04:30am 14.5 13.4 10.7 78 2.0 NW 7 11 4 6 1010.2 1010.1 0.0
22/04:00am 14.4 12.3 11.0 80 1.8 NNW 13 13 7 7 1010.1 1010.0 0.0
22/03:30am 14.5 13.3 11.5 82 1.6 NNW 9 9 5 5 1010.0 1009.9 0.0
22/03:00am 14.7 13.4 11.3 80 1.8 NW 9 11 5 6 1010.1 1010.0 0.0
22/02:30am 15.0 13.9 12.0 82 1.6 NNW 9 13 5 7 1010.3 1010.2 0.0
22/02:00am 16.2 16.0 12.9 81 1.8 WNW 6 7 3 4 1010.4 1010.3 0.0
22/01:30am 16.7 16.4 13.2 80 2.0 WNW 7 9 4 5 1010.6 1010.5 0.0
22/01:00am 16.7 16.4 12.7 77 2.2 NNW 6 7 3 4 1010.7 1010.6 0.0
22/12:30am 17.3 16.8 12.0 71 2.9 WSW 6 7 3 4 1011.1 1011.0 0.0
22/12:00am 17.7 16.0 12.4 71 2.9 SSW 13 15 7 8 1011.7 1011.6 0.0
 
Date/Time
CDT
Temp
°C
App
Temp
°C
Dew
Point
°C
Rel
Hum
%
Delta-T
°C
Wind Press
QNH
hPa
Press
MSL
hPa
Rain since
9am
mm
Dir  Spd
km/h
Gust
km/h
Spd
kts
Gust
kts
21/11:30pm 18.2 16.3 13.1 72 2.9 SSW 15 17 8 9 1011.8 1011.7 0.0
21/11:00pm 18.5 16.0 13.6 73 2.8 SSW 19 20 10 11 1012.0 1011.9 0.0
21/10:30pm 18.6 16.7 14.1 75 2.6 SSW 17 19 9 10 1011.9 1011.8 0.0
21/10:00pm 18.5 16.8 13.6 73 2.8 SW 15 20 8 11 1011.7 1011.6 0.0
21/09:30pm 19.0 16.8 14.3 74 2.7 SSW 19 22 10 12 1011.5 1011.4 0.0
21/09:00pm 19.2 16.7 14.2 73 2.9 SSW 20 24 11 13 1011.4 1011.3 0.0
21/08:30pm 19.5 17.7 14.5 73 2.9 SSW 17 20 9 11 1011.1 1011.0 0.0

Other formats

Comma delimited format used in spreadsheet applications
http://www.bom.gov.au/fwo/IDS60801/IDS60801.94677.axf

JavaScript Object Notation format (JSON) in row-major order
http://www.bom.gov.au/fwo/IDS60801/IDS60801.94677.json

Data quality

Most of these data are generated automatically and are frequently updated. Quality checks on data are not normally performed. It is possible for incorrect values to appear. Refer to information at About Latest Weather Observations and please check the disclaimer before using these data.